createdAt,value
2019-01-27T00:01:06.002Z,91.70
2019-01-27T00:03:35.298Z,92.12
2019-01-27T00:06:04.282Z,92.09
2019-01-27T00:08:33.030Z,91.71
2019-01-27T00:11:01.753Z,91.56
2019-01-27T00:13:30.599Z,91.29
2019-01-27T00:15:59.635Z,90.87
2019-01-27T00:18:28.435Z,91.13
2019-01-27T00:20:57.148Z,90.85
2019-01-27T00:23:25.908Z,91.16
2019-01-27T00:25:55.881Z,91.27
2019-01-27T00:28:24.892Z,92.01
2019-01-27T00:30:53.838Z,92.04
2019-01-27T00:33:22.791Z,93.17
2019-01-27T00:35:51.611Z,93.49
2019-01-27T00:38:20.563Z,93.51
2019-01-27T00:40:49.422Z,93.61
2019-01-27T00:43:18.155Z,94.07
2019-01-27T00:45:46.997Z,94.21
2019-01-27T00:48:15.888Z,94.60
2019-01-27T00:50:44.707Z,95.04
2019-01-27T00:53:13.787Z,94.98
2019-01-27T00:55:42.682Z,95.69
2019-01-27T00:58:11.476Z,95.75
2019-01-27T01:00:40.449Z,95.88
2019-01-27T01:03:09.236Z,95.69
2019-01-27T01:05:38.141Z,96.13
2019-01-27T01:08:06.928Z,96.43
2019-01-27T01:10:36.380Z,96.32
2019-01-27T01:13:05.509Z,96.49
2019-01-27T01:15:34.307Z,96.55
2019-01-27T01:18:03.135Z,96.49
2019-01-27T01:20:32.001Z,96.59
2019-01-27T01:23:00.952Z,96.72
2019-01-27T01:25:29.706Z,96.64
2019-01-27T01:27:58.710Z,96.81
2019-01-27T01:30:31.763Z,96.69
2019-01-27T01:33:00.584Z,96.85
2019-01-27T01:35:29.341Z,96.79
2019-01-27T01:37:58.241Z,96.91
2019-01-27T01:40:27.519Z,97.00
2019-01-27T01:42:56.577Z,96.89
2019-01-27T01:45:31.167Z,96.68
2019-01-27T01:48:00.265Z,96.53
2019-01-27T01:50:29.337Z,96.53
2019-01-27T01:52:58.749Z,96.54
2019-01-27T01:55:27.778Z,96.60
2019-01-27T01:57:56.816Z,96.58
2019-01-27T02:00:29.993Z,96.50
2019-01-27T02:02:59.054Z,96.74
2019-01-27T02:05:28.051Z,97.03
2019-01-27T02:07:57.115Z,96.94
2019-01-27T02:10:26.035Z,97.08
2019-01-27T02:12:54.849Z,97.08
2019-01-27T02:15:33.054Z,96.78
2019-01-27T02:18:01.949Z,96.83
2019-01-27T02:20:31.092Z,96.74
2019-01-27T02:23:00.067Z,96.47
2019-01-27T02:25:29.174Z,96.50
2019-01-27T02:27:58.187Z,96.43
2019-01-27T02:30:28.336Z,96.33
2019-01-27T02:32:57.845Z,96.44
2019-01-27T02:35:26.913Z,96.24
2019-01-27T02:37:55.944Z,95.91
2019-01-27T02:40:25.091Z,95.80
2019-01-27T02:42:54.748Z,95.99
2019-01-27T02:45:23.902Z,95.83
2019-01-27T02:47:53.303Z,95.66
2019-01-27T02:50:22.301Z,95.45
2019-01-27T02:52:51.334Z,95.38
2019-01-27T02:55:20.471Z,95.03
2019-01-27T02:57:49.425Z,95.02
2019-01-27T03:00:23.609Z,94.90
2019-01-27T03:02:52.488Z,95.17
2019-01-27T03:05:38.220Z,95.12
2019-01-27T03:08:07.227Z,95.01
2019-01-27T03:10:36.182Z,95.06
2019-01-27T03:13:05.630Z,94.84
2019-01-27T03:15:34.674Z,94.66
2019-01-27T03:18:03.746Z,94.63
2019-01-27T03:20:32.870Z,94.92
2019-01-27T03:23:01.802Z,94.67
2019-01-27T03:25:30.868Z,94.59
2019-01-27T03:27:59.919Z,94.58
2019-01-27T03:30:28.970Z,94.70
2019-01-27T03:32:58.017Z,95.01
2019-01-27T03:35:27.138Z,95.24
2019-01-27T03:37:56.152Z,95.41
2019-01-27T03:40:25.116Z,95.53
2019-01-27T03:42:54.162Z,95.94
2019-01-27T03:45:25.640Z,95.97
2019-01-27T03:47:54.642Z,95.80
2019-01-27T03:50:23.450Z,95.68
2019-01-27T03:52:52.436Z,96.05
2019-01-27T03:55:30.166Z,96.51
2019-01-27T03:57:59.243Z,96.60
2019-01-27T04:00:28.385Z,96.93
2019-01-27T04:02:57.314Z,97.01
2019-01-27T04:05:26.352Z,97.24
2019-01-27T04:07:55.410Z,97.27
2019-01-27T04:10:28.953Z,97.27
2019-01-27T04:12:57.898Z,97.33
2019-01-27T04:15:26.930Z,97.51
2019-01-27T04:17:56.114Z,97.60
2019-01-27T04:20:25.220Z,97.63
2019-01-27T04:22:54.215Z,97.69
2019-01-27T04:25:23.135Z,97.63
2019-01-27T04:27:52.531Z,97.63
2019-01-27T04:30:25.951Z,97.52
2019-01-27T04:32:54.796Z,97.35
2019-01-27T04:35:23.787Z,97.33
2019-01-27T04:37:53.107Z,97.08
2019-01-27T04:40:24.004Z,97.11
2019-01-27T04:42:53.023Z,97.02
2019-01-27T04:45:23.565Z,96.86
2019-01-27T04:47:52.609Z,96.89
2019-01-27T04:50:21.583Z,96.87
2019-01-27T04:52:50.600Z,96.76
2019-01-27T04:55:21.309Z,96.90
2019-01-27T04:57:50.318Z,96.68
2019-01-27T05:00:27.447Z,96.36
2019-01-27T05:03:03.988Z,96.13
2019-01-27T05:05:33.117Z,95.91
2019-01-27T05:08:02.082Z,96.18
2019-01-27T05:10:32.459Z,96.08
2019-01-27T05:13:01.463Z,96.02
2019-01-27T05:15:31.995Z,96.10
2019-01-27T05:18:01.063Z,96.15
2019-01-27T05:20:30.118Z,96.30
2019-01-27T05:22:59.346Z,96.27
2019-01-27T05:25:29.115Z,96.51
2019-01-27T05:27:58.098Z,96.52
2019-01-27T05:30:27.846Z,96.63
2019-01-27T05:32:57.045Z,96.64
2019-01-27T05:35:26.160Z,96.27
2019-01-27T05:38:06.335Z,95.98
2019-01-27T05:40:35.421Z,96.06
2019-01-27T05:43:04.650Z,95.62
2019-01-27T05:45:39.048Z,96.17
2019-01-27T05:50:39.809Z,96.22
2019-01-27T05:53:11.347Z,96.14
2019-01-27T05:55:40.178Z,96.01
2019-01-27T05:58:08.849Z,95.36
2019-01-27T06:00:39.089Z,95.21
2019-01-27T06:03:07.886Z,94.97
2019-01-27T06:05:36.813Z,94.69
2019-01-27T06:08:05.431Z,94.91
2019-01-27T06:10:34.143Z,94.75
2019-01-27T06:13:04.214Z,94.68
2019-01-27T06:15:32.904Z,94.76
2019-01-27T06:18:01.577Z,94.61
2019-01-27T06:20:30.258Z,94.80
2019-01-27T06:22:59.251Z,94.91
2019-01-27T06:25:30.935Z,94.97
2019-01-27T06:27:59.648Z,95.35
2019-01-27T06:30:29.355Z,95.56
2019-01-27T06:33:08.526Z,95.88
2019-01-27T06:35:38.022Z,96.19
2019-01-27T06:38:33.299Z,96.46
2019-01-27T06:41:01.951Z,96.76
2019-01-27T06:43:30.771Z,96.93
2019-01-27T06:45:59.443Z,97.04
2019-01-27T06:48:28.187Z,97.38
2019-01-27T06:51:02.700Z,97.46
2019-01-27T06:53:31.408Z,97.49
2019-01-27T06:56:00.057Z,97.29
2019-01-27T06:58:30.354Z,97.13
2019-01-27T07:01:10.017Z,96.87
2019-01-27T07:03:40.308Z,96.91
2019-01-27T07:06:16.537Z,96.83
2019-01-27T07:08:49.567Z,96.97
2019-01-27T07:11:22.655Z,97.17
2019-01-27T07:14:25.646Z,97.29
2019-01-27T07:17:08.636Z,97.34
2019-01-27T07:19:39.335Z,97.31
2019-01-27T07:22:18.130Z,97.42
2019-01-27T07:25:01.749Z,97.22
2019-01-27T07:27:48.964Z,97.21
2019-01-27T07:30:46.249Z,97.20
2019-01-27T07:33:39.120Z,96.88
2019-01-27T07:36:12.236Z,96.77
2019-01-27T07:38:53.741Z,96.92
2019-01-27T07:41:24.038Z,96.63
2019-01-27T07:44:06.560Z,95.96
2019-01-27T07:46:38.276Z,95.54
2019-01-27T07:49:18.687Z,95.66
2019-01-27T07:51:58.295Z,95.81
2019-01-27T07:54:34.497Z,96.12
2019-01-27T07:57:11.692Z,96.20
2019-01-27T07:59:50.382Z,95.88
2019-01-27T08:02:20.803Z,95.79
2019-01-27T08:04:53.403Z,95.68
2019-01-27T08:07:25.474Z,95.35
2019-01-27T08:10:12.811Z,95.25
2019-01-27T08:13:00.227Z,95.61
2019-01-27T08:15:34.446Z,94.84
2019-01-27T08:18:07.974Z,94.89
2019-01-27T08:20:48.321Z,94.52
2019-01-27T08:23:27.672Z,94.56
2019-01-27T08:26:00.878Z,95.03
2019-01-27T08:28:34.284Z,94.97
2019-01-27T08:31:04.516Z,94.97
2019-01-27T08:33:34.796Z,95.24
2019-01-27T08:36:05.104Z,95.11
2019-01-27T08:38:37.737Z,95.13
2019-01-27T08:41:11.404Z,95.31
2019-01-27T08:43:47.577Z,95.62
2019-01-27T08:46:21.480Z,95.89
2019-01-27T08:49:03.182Z,96.04
2019-01-27T08:51:51.250Z,96.48
2019-01-27T08:54:24.949Z,96.68
2019-01-27T08:56:56.812Z,96.09
2019-01-27T08:59:27.059Z,95.75
2019-01-27T09:02:06.077Z,95.83
2019-01-27T09:04:38.445Z,95.39
2019-01-27T09:07:21.532Z,94.39
2019-01-27T09:09:54.961Z,94.23
2019-01-27T09:12:40.107Z,93.99
2019-01-27T09:15:29.881Z,94.15
2019-01-27T09:18:03.284Z,94.19
2019-01-27T09:20:33.928Z,94.39
2019-01-27T09:23:13.369Z,94.41
2019-01-27T09:25:44.072Z,94.56
2019-01-27T09:28:28.944Z,94.57
2019-01-27T09:30:59.491Z,94.95
2019-01-27T09:33:32.547Z,95.43
2019-01-27T09:36:19.018Z,95.94
2019-01-27T09:38:50.816Z,96.21
2019-01-27T09:41:21.599Z,96.29
2019-01-27T09:43:54.944Z,96.23
2019-01-27T09:46:37.330Z,96.58
2019-01-27T09:49:10.608Z,96.55
2019-01-27T09:51:43.713Z,97.04
2019-01-27T09:54:14.129Z,97.25
2019-01-27T09:57:02.731Z,97.45
2019-01-27T09:59:33.703Z,97.18
2019-01-27T10:02:09.994Z,97.13
2019-01-27T10:04:40.439Z,97.15
2019-01-27T10:07:20.250Z,97.18
2019-01-27T10:09:57.823Z,97.17
2019-01-27T10:12:28.322Z,97.08
2019-01-27T10:15:18.347Z,96.67
2019-01-27T10:18:01.527Z,96.51
2019-01-27T10:20:32.017Z,96.00
2019-01-27T10:23:05.531Z,96.01
2019-01-27T10:25:42.298Z,95.76
2019-01-27T10:28:26.366Z,95.71
2019-01-27T10:31:03.629Z,95.87
2019-01-27T10:33:37.446Z,95.72
2019-01-27T10:36:19.998Z,95.87
2019-01-27T10:38:50.543Z,96.05
2019-01-27T10:41:24.148Z,96.24
2019-01-27T10:44:03.946Z,96.25
2019-01-27T10:46:46.959Z,96.05
2019-01-27T10:49:35.865Z,96.18
2019-01-27T10:52:24.601Z,96.21
2019-01-27T10:55:00.759Z,95.92
2019-01-27T10:57:47.234Z,96.07
2019-01-27T11:00:28.979Z,96.41
2019-01-27T11:03:14.113Z,95.39
2019-01-27T11:05:44.420Z,94.80
2019-01-27T11:08:15.713Z,95.23
2019-01-27T11:10:49.464Z,95.00
2019-01-27T11:13:32.093Z,94.93
2019-01-27T11:16:20.609Z,94.64
2019-01-27T11:18:53.817Z,94.35
2019-01-27T11:21:36.679Z,94.32
2019-01-27T11:24:22.037Z,93.36
2019-01-27T11:26:55.418Z,94.15
2019-01-27T11:29:34.998Z,95.38
2019-01-27T11:32:10.255Z,95.77
2019-01-27T11:35:08.789Z,95.95
2019-01-27T11:37:41.674Z,95.94
2019-01-27T11:40:28.194Z,96.02
2019-01-27T11:42:58.526Z,96.21
2019-01-27T11:45:31.743Z,96.15
2019-01-27T11:48:17.958Z,95.78
2019-01-27T11:51:17.001Z,95.72
2019-01-27T11:53:46.509Z,95.99
2019-01-27T11:56:15.216Z,96.15
2019-01-27T11:58:43.933Z,96.07
2019-01-27T12:01:12.775Z,96.46
2019-01-27T12:03:41.633Z,96.25
2019-01-27T12:06:12.121Z,96.77
2019-01-27T12:08:40.797Z,96.91
2019-01-27T12:11:09.518Z,96.68
2019-01-27T12:13:38.145Z,96.90
2019-01-27T12:16:06.843Z,96.68
2019-01-27T12:18:35.580Z,96.65
2019-01-27T12:21:05.140Z,96.60
2019-01-27T12:23:33.914Z,96.74
2019-01-27T12:26:02.627Z,96.34
2019-01-27T12:28:31.275Z,96.23
2019-01-27T12:31:00.031Z,96.57
2019-01-27T12:33:28.977Z,96.60
2019-01-27T12:35:57.555Z,96.31
2019-01-27T12:38:26.478Z,95.61
2019-01-27T12:40:55.225Z,95.72
2019-01-27T12:43:23.944Z,95.31
2019-01-27T12:45:52.838Z,95.13
2019-01-27T12:48:21.619Z,95.36
2019-01-27T12:50:50.362Z,95.15
2019-01-27T12:53:19.045Z,95.48
2019-01-27T12:55:48.941Z,95.82
2019-01-27T12:58:19.385Z,95.55
2019-01-27T13:00:51.188Z,95.42
2019-01-27T13:03:22.671Z,95.91
2019-01-27T13:05:53.121Z,95.56
2019-01-27T13:08:22.998Z,96.00
2019-01-27T13:10:57.396Z,95.99
2019-01-27T13:13:28.267Z,95.29
2019-01-27T13:15:56.910Z,95.14
2019-01-27T13:18:25.666Z,95.08
2019-01-27T13:20:54.766Z,95.43
2019-01-27T13:23:23.652Z,95.07
2019-01-27T13:25:52.385Z,95.11
2019-01-27T13:28:21.007Z,94.61
2019-01-27T13:30:49.653Z,94.23
2019-01-27T13:33:18.333Z,94.69
2019-01-27T13:35:47.011Z,94.23
2019-01-27T13:38:15.747Z,94.70
2019-01-27T13:40:44.486Z,94.64
2019-01-27T13:43:13.756Z,94.50
2019-01-27T13:45:42.601Z,94.59
2019-01-27T13:48:11.622Z,94.39
2019-01-27T13:50:41.062Z,94.40
2019-01-27T13:53:10.246Z,94.36
2019-01-27T13:55:39.420Z,94.94
2019-01-27T13:58:08.591Z,95.28
2019-01-27T14:00:43.186Z,95.80
2019-01-27T14:03:12.151Z,95.64
2019-01-27T14:05:41.513Z,95.79
2019-01-27T14:08:10.106Z,95.98
2019-01-27T14:10:38.924Z,96.05
2019-01-27T14:13:07.552Z,96.16
2019-01-27T14:15:39.014Z,96.38
2019-01-27T14:18:08.328Z,96.21
2019-01-27T14:20:36.981Z,96.06
2019-01-27T14:23:05.776Z,95.65
2019-01-27T14:25:35.641Z,95.33
2019-01-27T14:28:05.310Z,95.68
2019-01-27T14:30:41.084Z,96.03
2019-01-27T14:33:20.697Z,95.91
2019-01-27T14:35:50.118Z,96.24
2019-01-27T14:38:18.807Z,96.42
2019-01-27T14:40:47.484Z,96.35
2019-01-27T14:43:16.331Z,96.35
2019-01-27T14:45:44.996Z,96.60
2019-01-27T14:48:13.694Z,96.69
2019-01-27T14:50:45.174Z,96.33
2019-01-27T14:53:14.017Z,96.13
2019-01-27T14:55:42.709Z,96.35
2019-01-27T14:58:11.361Z,96.49
2019-01-27T15:00:45.232Z,96.78
2019-01-27T15:03:14.588Z,96.78
2019-01-27T15:05:43.260Z,96.56
2019-01-27T15:08:12.037Z,96.32
2019-01-27T15:10:40.722Z,95.94
2019-01-27T15:13:09.480Z,95.47
2019-01-27T15:15:38.166Z,95.12
2019-01-27T15:18:06.900Z,94.57
2019-01-27T15:20:38.528Z,94.54
2019-01-27T15:23:07.183Z,94.64
2019-01-27T15:25:35.861Z,94.69
2019-01-27T15:28:05.434Z,94.46
2019-01-27T15:30:36.197Z,94.45
2019-01-27T15:33:07.053Z,94.57
2019-01-27T15:35:35.899Z,94.56
2019-01-27T15:38:05.226Z,94.66
2019-01-27T15:40:33.947Z,94.64
2019-01-27T15:43:02.624Z,94.53
2019-01-27T15:45:48.554Z,94.55
2019-01-27T15:48:17.463Z,94.32
2019-01-27T15:50:46.225Z,94.63
2019-01-27T15:53:14.854Z,94.99
2019-01-27T15:55:43.486Z,95.01
2019-01-27T15:58:12.298Z,95.12
2019-01-27T16:00:41.078Z,95.25
2019-01-27T16:03:09.699Z,95.22
2019-01-27T16:05:38.314Z,95.25
2019-01-27T16:08:07.017Z,95.34
2019-01-27T16:10:35.715Z,95.40
2019-01-27T16:13:05.426Z,95.30
2019-01-27T16:15:36.463Z,95.28
2019-01-27T16:18:06.024Z,95.40
2019-01-27T16:20:34.755Z,95.69
2019-01-27T16:23:20.273Z,95.72
2019-01-27T16:25:48.911Z,95.73
2019-01-27T16:28:17.561Z,95.82
2019-01-27T16:30:59.725Z,95.86
2019-01-27T16:33:32.717Z,96.05
2019-01-27T16:36:01.427Z,96.11
2019-01-27T16:38:33.394Z,96.22
2019-01-27T16:41:01.961Z,96.06
2019-01-27T16:43:31.229Z,95.89
2019-01-27T16:45:59.872Z,95.76
2019-01-27T16:48:28.866Z,95.82
2019-01-27T16:50:57.557Z,95.80
2019-01-27T16:53:26.378Z,95.79
2019-01-27T16:55:56.243Z,95.89
2019-01-27T16:58:26.175Z,95.82
2019-01-27T17:00:55.163Z,95.94
2019-01-27T17:03:25.265Z,95.91
2019-01-27T17:05:57.532Z,95.86
2019-01-27T17:08:26.333Z,95.74
2019-01-27T17:10:55.216Z,95.77
2019-01-27T17:13:24.000Z,95.86
2019-01-27T17:15:53.213Z,95.63
2019-01-27T17:18:22.109Z,95.60
2019-01-27T17:20:50.743Z,95.41
2019-01-27T17:23:19.771Z,95.42
2019-01-27T17:25:53.505Z,95.24
2019-01-27T17:28:21.243Z,95.04
2019-01-27T17:30:50.191Z,94.97
2019-01-27T17:33:19.221Z,95.09
2019-01-27T17:35:48.233Z,94.69
2019-01-27T17:38:16.913Z,94.24
2019-01-27T17:40:48.273Z,94.09
2019-01-27T17:43:16.951Z,94.38
2019-01-27T17:45:45.581Z,94.44
2019-01-27T17:48:14.350Z,94.38
2019-01-27T17:50:42.991Z,94.23
2019-01-27T17:53:11.655Z,94.19
2019-01-27T17:55:44.363Z,94.16
2019-01-27T17:58:32.369Z,94.29
2019-01-27T18:01:08.185Z,94.12
2019-01-27T18:03:44.440Z,94.09
2019-01-27T18:06:27.580Z,94.12
2019-01-27T18:09:07.043Z,93.79
2019-01-27T18:11:38.539Z,93.20
2019-01-27T18:14:09.861Z,93.18
2019-01-27T18:16:38.520Z,93.33
2019-01-27T18:19:08.357Z,93.42
2019-01-27T18:21:36.986Z,93.29
2019-01-27T18:24:05.742Z,93.05
2019-01-27T18:26:34.386Z,92.95
2019-01-27T18:29:03.052Z,92.95
2019-01-27T18:31:31.756Z,93.10
2019-01-27T18:34:00.522Z,93.20
2019-01-27T18:36:29.208Z,93.17
2019-01-27T18:38:59.041Z,93.31
2019-01-27T18:41:27.677Z,93.36
2019-01-27T18:43:56.531Z,93.54
2019-01-27T18:46:27.958Z,93.56
2019-01-27T18:48:56.733Z,93.57
2019-01-27T18:51:25.595Z,93.60
2019-01-27T18:54:01.871Z,93.84
2019-01-27T18:56:32.121Z,93.43
2019-01-27T18:59:05.669Z,93.68
2019-01-27T19:01:52.178Z,93.85
2019-01-27T19:04:25.114Z,94.04
2019-01-27T19:07:04.352Z,94.10
2019-01-27T19:09:35.022Z,94.01
2019-01-27T19:12:08.627Z,94.11
2019-01-27T19:14:54.141Z,94.09
2019-01-27T19:17:40.947Z,93.82
2019-01-27T19:20:14.939Z,93.91
2019-01-27T19:22:59.752Z,93.38
2019-01-27T19:25:33.058Z,93.50
2019-01-27T19:28:03.479Z,93.34
2019-01-27T19:30:34.234Z,92.91
2019-01-27T19:33:11.740Z,92.83
2019-01-27T19:35:51.204Z,92.64
2019-01-27T19:38:27.940Z,92.91
2019-01-27T19:41:01.175Z,93.15
2019-01-27T19:43:36.211Z,92.74
2019-01-27T19:46:07.167Z,92.78
2019-01-27T19:48:53.245Z,92.32
2019-01-27T19:51:26.875Z,92.49
2019-01-27T19:54:00.009Z,92.56
2019-01-27T19:56:33.559Z,92.48
2019-01-27T19:59:04.401Z,92.46
2019-01-27T20:01:41.185Z,92.44
2019-01-27T20:04:23.444Z,92.29
2019-01-27T20:07:05.759Z,92.29
2019-01-27T20:09:36.818Z,92.41
2019-01-27T20:12:13.577Z,92.63
2019-01-27T20:14:47.282Z,92.68
2019-01-27T20:17:20.834Z,92.87
2019-01-27T20:19:54.089Z,93.13
2019-01-27T20:22:24.833Z,93.06
2019-01-27T20:24:56.002Z,93.28
2019-01-27T20:27:31.756Z,93.19
2019-01-27T20:30:04.853Z,93.47
2019-01-27T20:32:35.320Z,93.61
2019-01-27T20:35:10.530Z,93.39
2019-01-27T20:37:56.971Z,93.24
2019-01-27T20:40:39.488Z,93.18
2019-01-27T20:43:15.631Z,93.58
2019-01-27T20:45:48.668Z,93.67
2019-01-27T20:48:18.866Z,93.06
2019-01-27T20:51:05.123Z,92.56
2019-01-27T20:53:50.504Z,92.92
2019-01-27T20:56:27.403Z,93.02
2019-01-27T20:58:57.533Z,92.78
2019-01-27T21:01:27.539Z,92.82
2019-01-27T21:03:57.525Z,92.86
2019-01-27T21:06:27.561Z,92.69
2019-01-27T21:09:00.048Z,92.39
2019-01-27T21:11:46.881Z,92.57
2019-01-27T21:14:22.062Z,92.79
2019-01-27T21:16:52.253Z,92.61
2019-01-27T21:19:22.313Z,92.80
2019-01-27T21:21:50.831Z,92.76
2019-01-27T21:24:19.395Z,92.33
2019-01-27T21:26:48.503Z,92.08
2019-01-27T21:29:18.163Z,92.48
2019-01-27T21:31:46.433Z,92.55
2019-01-27T21:34:19.207Z,92.20
2019-01-27T21:36:48.311Z,92.08
2019-01-27T21:39:16.834Z,91.89
2019-01-27T21:41:45.877Z,91.55
2019-01-27T21:44:14.217Z,91.73
2019-01-27T21:46:42.603Z,91.67
2019-01-27T21:49:10.939Z,91.66
2019-01-27T21:51:39.294Z,91.18
2019-01-27T21:54:07.610Z,91.49
2019-01-27T21:56:36.040Z,91.37
2019-01-27T21:59:05.536Z,91.40
2019-01-27T22:01:33.871Z,91.22
2019-01-27T22:04:02.242Z,91.45
2019-01-27T22:06:33.936Z,90.81
2019-01-27T22:09:03.516Z,90.99
2019-01-27T22:11:31.982Z,91.24
2019-01-27T22:14:00.277Z,91.33
2019-01-27T22:16:29.150Z,91.46
2019-01-27T22:18:57.701Z,91.15
2019-01-27T22:21:27.100Z,91.22
2019-01-27T22:23:55.420Z,91.22
2019-01-27T22:26:23.772Z,91.67
2019-01-27T22:28:52.170Z,91.17
2019-01-27T22:31:21.266Z,91.36
2019-01-27T22:33:49.841Z,91.49
2019-01-27T22:36:18.650Z,91.12
2019-01-27T22:38:47.186Z,90.91
2019-01-27T22:41:16.774Z,91.67
2019-01-27T22:43:45.139Z,91.25
2019-01-27T22:46:13.570Z,91.01
2019-01-27T22:48:41.913Z,90.81
2019-01-27T22:51:10.271Z,91.05
2019-01-27T22:53:39.023Z,91.54
2019-01-27T22:56:07.526Z,91.25
2019-01-27T22:58:35.856Z,91.65
2019-01-27T23:01:05.633Z,91.45
2019-01-27T23:03:34.653Z,91.39
2019-01-27T23:06:09.613Z,91.82
2019-01-27T23:08:37.988Z,91.34
2019-01-27T23:11:06.392Z,91.43
2019-01-27T23:13:34.767Z,91.45
2019-01-27T23:16:03.182Z,91.81
2019-01-27T23:18:31.557Z,91.75
2019-01-27T23:20:59.860Z,91.70
2019-01-27T23:23:28.239Z,91.49
2019-01-27T23:25:56.608Z,91.59
2019-01-27T23:28:24.903Z,91.64
2019-01-27T23:30:53.373Z,91.29
2019-01-27T23:33:21.727Z,91.04
2019-01-27T23:35:50.081Z,90.81
2019-01-27T23:38:18.449Z,91.25
2019-01-27T23:40:46.712Z,91.13
2019-01-27T23:43:15.150Z,91.11
2019-01-27T23:45:43.487Z,90.83
2019-01-27T23:48:11.873Z,90.77
2019-01-27T23:50:40.273Z,91.15
2019-01-27T23:53:08.619Z,91.03
2019-01-27T23:55:36.975Z,91.21
2019-01-27T23:58:05.370Z,91.60
